createdAt,value
2022-11-26T00:02:30.954Z,75.45
2022-11-26T00:04:59.211Z,75.90
2022-11-26T00:07:29.931Z,73.13
2022-11-26T00:09:58.786Z,70.78
2022-11-26T00:12:33.054Z,72.05
2022-11-26T00:15:10.619Z,68.10
2022-11-26T00:17:37.461Z,69.85
2022-11-26T00:20:04.859Z,69.90
2022-11-26T00:22:37.754Z,71.60
2022-11-26T00:25:05.056Z,76.57
2022-11-26T00:27:31.943Z,73.13
2022-11-26T00:29:58.842Z,67.20
2022-11-26T00:32:26.610Z,73.20
2022-11-26T00:34:54.142Z,71.28
2022-11-26T00:37:28.395Z,74.88
2022-11-26T00:39:56.419Z,75.30
2022-11-26T00:42:23.294Z,64.65
2022-11-26T00:44:50.237Z,72.70
2022-11-26T00:47:17.094Z,73.80
2022-11-26T00:49:44.115Z,70.63
2022-11-26T00:52:37.353Z,71.15
2022-11-26T00:55:13.451Z,69.97
2022-11-26T00:57:40.409Z,80.35
2022-11-26T01:00:15.891Z,73.50
2022-11-26T01:02:43.259Z,72.70
2022-11-26T01:05:10.201Z,64.95
2022-11-26T01:07:37.158Z,79.15
2022-11-26T01:10:05.185Z,72.30
2022-11-26T01:12:32.094Z,76.65
2022-11-26T01:14:58.992Z,71.07
2022-11-26T01:17:26.250Z,67.22
2022-11-26T01:19:53.078Z,71.22
2022-11-26T01:22:22.166Z,69.60
2022-11-26T01:24:49.394Z,74.10
2022-11-26T01:27:16.354Z,79.53
2022-11-26T01:29:43.209Z,71.50
2022-11-26T01:32:11.245Z,82.25
2022-11-26T01:34:38.473Z,75.53
2022-11-26T01:37:13.191Z,69.78
2022-11-26T01:42:22.071Z,78.88
2022-11-26T01:44:48.909Z,82.05
2022-11-26T01:47:33.908Z,81.80
2022-11-26T01:50:28.730Z,75.05
2022-11-26T01:53:04.162Z,75.93
2022-11-26T01:55:37.083Z,77.75
2022-11-26T01:58:07.062Z,83.63
2022-11-26T02:00:34.227Z,80.50
2022-11-26T02:03:01.671Z,64.40
2022-11-26T02:05:31.772Z,68.03
2022-11-26T02:07:59.171Z,81.60
2022-11-26T02:10:26.497Z,73.70
2022-11-26T02:12:53.514Z,79.13
2022-11-26T02:15:21.127Z,84.18
2022-11-26T02:18:14.926Z,78.80
2022-11-26T02:21:03.353Z,70.20
2022-11-26T02:23:47.984Z,83.10
2022-11-26T02:26:59.540Z,73.07
2022-11-26T02:29:49.728Z,76.53
2022-11-26T02:32:27.732Z,68.15
2022-11-26T02:34:54.520Z,68.00
2022-11-26T02:37:47.316Z,83.28
2022-11-26T02:40:14.525Z,78.85
2022-11-26T02:42:41.474Z,73.15
2022-11-26T02:45:12.773Z,69.10
2022-11-26T02:47:43.152Z,63.58
2022-11-26T02:50:18.334Z,74.90
2022-11-26T02:52:45.801Z,75.68
2022-11-26T02:55:15.743Z,62.47
2022-11-26T02:57:48.859Z,73.47
2022-11-26T03:00:16.705Z,74.53
2022-11-26T03:03:09.680Z,71.32
2022-11-26T03:05:39.157Z,69.72
2022-11-26T03:08:07.553Z,72.75
2022-11-26T03:10:34.697Z,69.85
2022-11-26T03:13:01.554Z,67.25
2022-11-26T03:15:28.711Z,71.30
2022-11-26T03:17:55.571Z,71.30
2022-11-26T03:20:22.768Z,66.05
2022-11-26T03:22:49.655Z,79.35
2022-11-26T03:25:16.628Z,71.70
2022-11-26T03:27:43.525Z,70.32
2022-11-26T03:30:11.076Z,74.38
2022-11-26T03:32:38.069Z,91.82
2022-11-26T03:35:05.597Z,76.03
2022-11-26T03:37:32.486Z,69.75
2022-11-26T03:39:59.753Z,71.03
2022-11-26T03:42:26.712Z,76.10
2022-11-26T03:44:53.967Z,71.43
2022-11-26T03:47:21.130Z,79.78
2022-11-26T03:49:48.001Z,76.65
2022-11-26T03:52:14.904Z,75.25
2022-11-26T03:54:41.817Z,73.78
2022-11-26T03:57:08.711Z,71.72
2022-11-26T03:59:35.576Z,73.45
2022-11-26T04:02:03.225Z,69.65
2022-11-26T04:04:30.283Z,76.10
2022-11-26T04:06:57.530Z,67.82
2022-11-26T04:09:24.452Z,70.68
2022-11-26T04:11:51.351Z,64.97
2022-11-26T04:14:19.930Z,69.97
2022-11-26T04:16:46.943Z,66.82
2022-11-26T04:19:13.864Z,69.82
2022-11-26T04:21:40.770Z,66.15
2022-11-26T04:24:08.158Z,73.05
2022-11-26T04:26:35.257Z,80.22
2022-11-26T04:29:02.076Z,69.75
2022-11-26T04:31:29.008Z,71.15
2022-11-26T04:33:55.935Z,63.42
2022-11-26T04:36:22.844Z,60.58
2022-11-26T04:38:49.689Z,66.03
2022-11-26T04:41:16.700Z,73.63
2022-11-26T04:43:43.589Z,63.80
2022-11-26T04:46:10.522Z,72.72
2022-11-26T04:48:37.558Z,64.95
2022-11-26T04:51:04.634Z,61.05
2022-11-26T04:53:31.495Z,67.40
2022-11-26T04:55:58.311Z,69.22
2022-11-26T04:58:25.224Z,66.25
2022-11-26T05:00:52.492Z,60.45
2022-11-26T05:03:19.814Z,66.35
2022-11-26T05:05:47.393Z,65.68
2022-11-26T05:08:14.753Z,66.07
2022-11-26T05:10:41.640Z,68.47
2022-11-26T05:13:08.492Z,62.15
2022-11-26T05:15:35.447Z,64.40
2022-11-26T05:18:02.293Z,61.17
2022-11-26T05:20:29.210Z,64.15
2022-11-26T05:22:56.038Z,66.82
2022-11-26T05:25:22.908Z,64.93
2022-11-26T05:27:49.733Z,63.65
2022-11-26T05:30:16.692Z,61.55
2022-11-26T05:32:43.539Z,68.70
2022-11-26T05:35:10.718Z,60.30
2022-11-26T05:37:37.834Z,70.30
2022-11-26T05:40:05.592Z,66.45
2022-11-26T05:42:32.432Z,58.80
2022-11-26T05:44:59.323Z,61.38
2022-11-26T05:47:26.573Z,60.70
2022-11-26T05:49:53.686Z,59.05
2022-11-26T05:52:20.978Z,53.55
2022-11-26T05:54:47.992Z,53.95
2022-11-26T05:57:15.126Z,59.78
2022-11-26T05:59:42.134Z,55.90
2022-11-26T06:02:09.455Z,65.03
2022-11-26T06:04:36.994Z,56.38
2022-11-26T06:07:04.084Z,53.55
2022-11-26T06:09:30.891Z,50.15
2022-11-26T06:11:57.805Z,52.33
2022-11-26T06:14:25.019Z,56.50
2022-11-26T06:16:52.279Z,53.97
2022-11-26T06:19:19.181Z,49.20
2022-11-26T06:21:46.186Z,54.13
2022-11-26T06:24:13.000Z,46.05
2022-11-26T06:26:40.392Z,103.65
2022-11-26T06:29:07.199Z,63.53
2022-11-26T06:31:34.335Z,52.15
2022-11-26T06:34:01.247Z,48.20
2022-11-26T06:36:28.168Z,48.13
2022-11-26T06:38:55.021Z,55.03
2022-11-26T06:41:22.263Z,36.20
2022-11-26T06:43:49.092Z,48.58
2022-11-26T06:46:16.015Z,46.25
2022-11-26T06:48:42.876Z,45.83
2022-11-26T06:51:13.815Z,47.22
2022-11-26T06:53:40.972Z,55.55
2022-11-26T06:56:17.717Z,47.78
2022-11-26T06:58:46.823Z,50.20
2022-11-26T07:01:17.744Z,46.08
2022-11-26T07:03:44.703Z,42.63
2022-11-26T07:06:29.005Z,42.05
2022-11-26T07:08:57.890Z,44.65
2022-11-26T07:11:26.125Z,43.13
2022-11-26T07:13:53.462Z,42.03
2022-11-26T07:16:20.892Z,52.88
2022-11-26T07:18:57.717Z,45.10
2022-11-26T07:21:28.140Z,46.42
2022-11-26T07:23:55.570Z,42.92
2022-11-26T07:26:23.696Z,39.65
2022-11-26T07:28:50.787Z,43.80
2022-11-26T07:31:20.217Z,43.90
2022-11-26T07:33:47.666Z,53.80
2022-11-26T07:36:25.545Z,37.60
2022-11-26T07:38:56.931Z,38.35
2022-11-26T07:41:24.728Z,37.47
2022-11-26T07:43:51.840Z,43.75
2022-11-26T07:46:22.094Z,42.00
2022-11-26T07:48:49.485Z,34.20
2022-11-26T07:51:24.657Z,45.30
2022-11-26T07:53:52.620Z,40.42
2022-11-26T07:56:19.871Z,40.60
2022-11-26T07:58:47.351Z,38.72
2022-11-26T08:01:17.564Z,45.85
2022-11-26T08:03:47.400Z,41.35
2022-11-26T08:06:22.836Z,38.10
2022-11-26T08:08:49.797Z,40.65
2022-11-26T08:11:19.708Z,35.30
2022-11-26T08:13:47.160Z,35.70
2022-11-26T08:16:14.803Z,38.95
2022-11-26T08:18:42.383Z,35.53
2022-11-26T08:21:09.325Z,39.97
2022-11-26T08:23:36.417Z,38.65
2022-11-26T08:28:58.312Z,40.45
2022-11-26T08:31:27.795Z,42.40
2022-11-26T08:34:01.908Z,33.55
2022-11-26T08:36:30.730Z,43.33
2022-11-26T08:38:58.810Z,38.75
2022-11-26T08:41:26.277Z,48.38
2022-11-26T08:44:08.775Z,44.88
2022-11-26T08:46:38.137Z,44.45
2022-11-26T08:49:06.119Z,40.40
2022-11-26T08:51:33.349Z,39.70
2022-11-26T08:54:00.606Z,39.63
2022-11-26T08:56:27.457Z,36.75
2022-11-26T08:58:54.342Z,32.92
2022-11-26T09:01:24.960Z,42.25
2022-11-26T09:03:53.326Z,33.33
2022-11-26T09:06:21.751Z,34.03
2022-11-26T09:09:07.769Z,42.70
2022-11-26T09:11:38.444Z,37.03
2022-11-26T09:14:05.814Z,34.92
2022-11-26T09:16:33.389Z,38.10
2022-11-26T09:19:01.653Z,37.70
2022-11-26T09:21:28.624Z,31.08
2022-11-26T09:23:56.284Z,31.58
2022-11-26T09:26:24.463Z,31.58
2022-11-26T09:28:51.750Z,35.75
2022-11-26T09:31:19.472Z,33.88
2022-11-26T09:33:46.895Z,35.55
2022-11-26T09:36:15.390Z,33.33
2022-11-26T09:38:43.555Z,43.05
2022-11-26T09:41:30.272Z,36.30
2022-11-26T09:44:09.244Z,30.60
2022-11-26T09:47:10.058Z,42.50
2022-11-26T09:49:36.913Z,36.70
2022-11-26T09:52:07.356Z,36.63
2022-11-26T09:54:34.382Z,43.53
2022-11-26T09:57:47.993Z,38.53
2022-11-26T10:00:39.339Z,38.47
2022-11-26T10:03:12.482Z,36.70
2022-11-26T10:06:02.097Z,32.75
2022-11-26T10:08:56.794Z,34.15
2022-11-26T10:11:37.884Z,33.55
2022-11-26T10:14:37.997Z,33.53
2022-11-26T10:17:23.785Z,33.10
2022-11-26T10:20:09.405Z,33.85
2022-11-26T10:22:54.044Z,29.02
2022-11-26T10:25:29.268Z,29.33
2022-11-26T10:27:58.381Z,32.20
2022-11-26T10:30:30.319Z,32.78
2022-11-26T10:33:02.478Z,29.48
2022-11-26T10:35:30.273Z,30.95
2022-11-26T10:37:58.142Z,30.08
2022-11-26T10:40:30.042Z,30.45
2022-11-26T10:43:05.696Z,29.27
2022-11-26T10:45:47.404Z,30.48
2022-11-26T10:48:27.882Z,35.10
2022-11-26T10:51:15.498Z,26.20
2022-11-26T10:54:04.504Z,27.02
2022-11-26T10:56:43.850Z,30.52
2022-11-26T10:59:30.141Z,27.10
2022-11-26T11:02:05.821Z,25.67
2022-11-26T11:04:37.629Z,26.60
2022-11-26T11:07:10.327Z,25.55
2022-11-26T11:09:39.148Z,27.10
2022-11-26T11:12:12.139Z,25.63
2022-11-26T11:14:43.005Z,27.33
2022-11-26T11:17:33.776Z,27.75
2022-11-26T11:20:26.601Z,26.50
2022-11-26T11:23:10.668Z,26.90
2022-11-26T11:25:40.301Z,28.15
2022-11-26T11:28:12.962Z,26.10
2022-11-26T11:30:41.722Z,26.92
2022-11-26T11:33:11.644Z,26.80
2022-11-26T11:35:38.911Z,28.63
2022-11-26T11:38:17.291Z,31.30
2022-11-26T11:40:44.275Z,26.67
2022-11-26T11:43:15.745Z,24.52
2022-11-26T11:45:51.626Z,26.75
2022-11-26T11:48:23.107Z,28.77
2022-11-26T11:51:05.115Z,22.92
2022-11-26T11:53:47.140Z,25.58
2022-11-26T11:56:50.092Z,28.00
2022-11-26T11:59:19.645Z,27.38
2022-11-26T12:02:22.050Z,26.05
2022-11-26T12:05:23.975Z,25.00
2022-11-26T12:08:05.588Z,27.90
2022-11-26T12:11:00.138Z,31.23
2022-11-26T12:13:27.786Z,24.60
2022-11-26T12:16:03.145Z,27.77
2022-11-26T12:18:45.068Z,25.38
2022-11-26T12:21:14.142Z,26.33
2022-11-26T12:23:53.562Z,25.42
2022-11-26T12:26:42.582Z,25.30
2022-11-26T12:29:16.590Z,25.63
2022-11-26T12:31:54.918Z,22.77
2022-11-26T12:34:27.744Z,24.88
2022-11-26T12:37:02.307Z,26.63
2022-11-26T12:43:18.065Z,24.45
2022-11-26T12:46:11.265Z,23.88
2022-11-26T12:49:02.989Z,29.65
2022-11-26T12:51:48.110Z,26.60
2022-11-26T12:54:26.768Z,25.50
2022-11-26T12:57:02.757Z,29.05
2022-11-26T12:59:40.136Z,27.95
2022-11-26T13:02:28.777Z,23.40
2022-11-26T13:04:58.281Z,25.90
2022-11-26T13:07:43.953Z,24.15
2022-11-26T13:10:49.836Z,29.95
2022-11-26T13:13:46.152Z,26.95
2022-11-26T13:16:22.540Z,33.47
2022-11-26T13:19:33.931Z,23.75
2022-11-26T13:22:24.914Z,31.85
2022-11-26T13:25:03.572Z,32.72
2022-11-26T13:27:35.529Z,26.58
2022-11-26T13:30:24.927Z,27.45
2022-11-26T13:33:36.211Z,31.48
2022-11-26T13:36:27.100Z,26.02
2022-11-26T13:39:08.630Z,31.05
2022-11-26T13:41:44.349Z,28.23
2022-11-26T13:44:29.638Z,30.15
2022-11-26T13:46:59.462Z,32.60
2022-11-26T13:49:43.441Z,31.38
2022-11-26T13:52:36.194Z,27.20
2022-11-26T13:55:11.728Z,29.15
2022-11-26T13:57:44.079Z,30.58
2022-11-26T14:00:12.509Z,28.65
2022-11-26T14:02:42.770Z,33.35
2022-11-26T14:05:17.264Z,33.30
2022-11-26T14:07:45.777Z,28.45
2022-11-26T14:10:34.769Z,33.10
2022-11-26T14:13:04.986Z,31.55
2022-11-26T14:15:41.068Z,31.77
2022-11-26T14:18:17.982Z,34.63
2022-11-26T14:21:00.746Z,33.53
2022-11-26T14:23:47.505Z,31.35
2022-11-26T14:26:37.771Z,28.80
2022-11-26T14:29:12.099Z,32.78
2022-11-26T14:31:51.980Z,32.28
2022-11-26T14:34:39.687Z,29.55
2022-11-26T14:37:14.322Z,30.48
2022-11-26T14:39:41.616Z,27.67
2022-11-26T14:42:18.274Z,35.35
2022-11-26T14:44:45.300Z,28.50
2022-11-26T14:47:20.009Z,31.42
2022-11-26T14:50:15.176Z,36.03
2022-11-26T14:55:24.226Z,31.45
2022-11-26T14:57:53.171Z,36.10
2022-11-26T15:00:26.661Z,42.20
2022-11-26T15:02:54.377Z,42.75
2022-11-26T15:05:28.426Z,36.67
2022-11-26T15:08:19.462Z,40.45
2022-11-26T15:10:57.734Z,41.28
2022-11-26T15:13:44.855Z,42.80
2022-11-26T15:16:44.667Z,44.03
2022-11-26T15:19:14.973Z,38.53
2022-11-26T15:21:41.936Z,39.13
2022-11-26T15:24:09.243Z,35.50
2022-11-26T15:26:38.361Z,36.85
2022-11-26T15:29:29.428Z,35.35
2022-11-26T15:31:56.420Z,44.33
2022-11-26T15:34:23.880Z,38.53
2022-11-26T15:36:50.875Z,35.78
2022-11-26T15:39:37.981Z,39.38
2022-11-26T15:42:20.352Z,38.78
2022-11-26T15:44:49.314Z,39.40
2022-11-26T15:47:20.983Z,38.08
2022-11-26T15:49:52.226Z,35.92
2022-11-26T15:52:25.092Z,34.40
2022-11-26T15:55:12.645Z,37.03
2022-11-26T15:57:41.180Z,38.47
2022-11-26T16:00:34.407Z,40.53
2022-11-26T16:03:01.704Z,38.83
2022-11-26T16:05:38.891Z,39.60
2022-11-26T16:08:22.038Z,37.55
2022-11-26T16:11:06.890Z,34.90
2022-11-26T16:16:04.585Z,34.20
2022-11-26T16:18:38.578Z,35.65
2022-11-26T16:21:14.748Z,39.88
2022-11-26T16:23:42.659Z,35.28
2022-11-26T16:29:51.052Z,44.72
2022-11-26T16:32:18.705Z,41.53
2022-11-26T16:34:45.959Z,37.00
2022-11-26T16:37:26.378Z,59.78
2022-11-26T16:40:01.284Z,40.47
2022-11-26T16:42:31.592Z,44.95
2022-11-26T16:45:03.760Z,36.75
2022-11-26T16:47:36.051Z,37.08
2022-11-26T16:50:03.285Z,43.88
2022-11-26T16:52:30.544Z,47.17
2022-11-26T16:54:57.836Z,43.42
2022-11-26T16:57:27.637Z,44.10
2022-11-26T16:59:59.915Z,47.58
2022-11-26T17:02:27.299Z,50.63
2022-11-26T17:04:54.338Z,46.65
2022-11-26T17:07:29.188Z,47.13
2022-11-26T17:09:57.110Z,47.25
2022-11-26T17:12:25.484Z,42.70
2022-11-26T17:17:28.812Z,49.05
2022-11-26T17:19:56.831Z,40.88
2022-11-26T17:22:24.983Z,38.88
2022-11-26T17:24:51.909Z,44.95
2022-11-26T17:27:23.056Z,45.80
2022-11-26T17:29:50.533Z,47.92
2022-11-26T17:32:19.595Z,45.85
2022-11-26T17:34:48.030Z,43.55
2022-11-26T17:37:22.960Z,51.30
2022-11-26T17:39:49.825Z,48.15
2022-11-26T17:42:19.827Z,50.53
2022-11-26T17:44:47.801Z,44.15
2022-11-26T17:47:20.183Z,43.33
2022-11-26T17:49:47.893Z,46.88
2022-11-26T17:52:15.664Z,47.17
2022-11-26T17:54:42.998Z,48.35
2022-11-26T17:57:11.619Z,47.45
2022-11-26T17:59:39.089Z,44.92
2022-11-26T18:02:06.744Z,44.78
2022-11-26T18:04:34.225Z,46.50
2022-11-26T18:07:19.423Z,54.63
2022-11-26T18:09:47.238Z,42.42
2022-11-26T18:12:24.865Z,44.92
2022-11-26T18:14:53.783Z,46.28
2022-11-26T18:17:21.404Z,49.40
2022-11-26T18:19:48.613Z,47.13
2022-11-26T18:22:19.605Z,54.00
2022-11-26T18:24:57.283Z,45.10
2022-11-26T18:27:30.741Z,67.50
2022-11-26T18:29:57.747Z,45.08
2022-11-26T18:32:24.815Z,51.67
2022-11-26T18:34:51.767Z,42.88
2022-11-26T18:37:19.201Z,44.72
2022-11-26T18:39:46.217Z,40.80
2022-11-26T18:45:00.976Z,51.70
2022-11-26T18:47:27.971Z,56.65
2022-11-26T18:49:54.926Z,46.63
2022-11-26T18:52:22.218Z,41.15
2022-11-26T18:54:49.123Z,45.47
2022-11-26T18:57:16.018Z,45.63
2022-11-26T18:59:43.138Z,41.90
2022-11-26T19:02:10.836Z,47.83
2022-11-26T19:04:39.093Z,45.72
2022-11-26T19:07:05.939Z,48.35
2022-11-26T19:09:33.057Z,49.10
2022-11-26T19:12:00.014Z,49.42
2022-11-26T19:14:27.010Z,52.53
2022-11-26T19:16:53.979Z,47.30
2022-11-26T19:19:21.406Z,46.50
2022-11-26T19:21:49.886Z,47.33
2022-11-26T19:24:16.950Z,44.90
2022-11-26T19:26:44.139Z,43.88
2022-11-26T19:29:12.916Z,46.08
2022-11-26T19:31:40.216Z,45.13
2022-11-26T19:34:11.286Z,46.20
2022-11-26T19:36:38.542Z,47.38
2022-11-26T19:39:07.250Z,47.20
2022-11-26T19:41:34.551Z,47.10
2022-11-26T19:44:03.747Z,46.63
2022-11-26T19:46:31.336Z,53.58
2022-11-26T19:48:58.492Z,50.40
2022-11-26T19:51:27.953Z,54.55
2022-11-26T19:53:56.287Z,53.65
2022-11-26T19:56:28.491Z,59.35
2022-11-26T19:58:58.363Z,52.33
2022-11-26T20:01:27.513Z,57.83
2022-11-26T20:03:54.512Z,59.25
2022-11-26T20:06:26.361Z,66.25
2022-11-26T20:08:54.081Z,61.20
2022-11-26T20:11:21.061Z,62.42
2022-11-26T20:13:49.303Z,60.45
2022-11-26T20:16:30.896Z,62.90
2022-11-26T20:18:59.631Z,53.92
2022-11-26T20:21:29.111Z,54.20
2022-11-26T20:23:59.586Z,45.97
2022-11-26T20:26:38.990Z,48.10
2022-11-26T20:29:09.315Z,44.08
2022-11-26T20:31:42.656Z,50.22
2022-11-26T20:34:09.979Z,57.42
2022-11-26T20:36:37.909Z,56.55
2022-11-26T20:39:04.882Z,58.17
2022-11-26T20:41:32.213Z,54.60
2022-11-26T20:43:59.817Z,56.15
2022-11-26T20:46:28.508Z,54.08
2022-11-26T20:48:55.794Z,58.17
2022-11-26T20:51:23.694Z,46.00
2022-11-26T20:53:52.101Z,45.15
2022-11-26T20:56:21.456Z,45.90
2022-11-26T20:58:49.853Z,54.33
2022-11-26T21:01:19.249Z,49.05
2022-11-26T21:03:46.515Z,43.92
2022-11-26T21:06:14.717Z,42.13
2022-11-26T21:08:42.786Z,40.42
2022-11-26T21:11:10.819Z,37.65
2022-11-26T21:13:39.396Z,43.50
2022-11-26T21:19:48.045Z,44.00
2022-11-26T21:22:14.964Z,39.42
2022-11-26T21:24:41.875Z,40.95
2022-11-26T21:27:08.826Z,35.83
2022-11-26T21:29:36.258Z,33.88
2022-11-26T21:32:03.199Z,32.97
2022-11-26T21:34:30.163Z,33.38
2022-11-26T21:36:57.097Z,30.35
2022-11-26T21:39:24.013Z,33.40
2022-11-26T21:41:52.905Z,29.63
2022-11-26T21:44:19.796Z,29.55
2022-11-26T21:46:47.940Z,25.15
2022-11-26T21:49:14.862Z,25.00
2022-11-26T21:51:41.804Z,23.70
2022-11-26T21:54:09.727Z,21.77
2022-11-26T21:56:37.917Z,22.55
2022-11-26T21:59:04.872Z,21.33
2022-11-26T22:01:35.081Z,19.73
2022-11-26T22:04:16.856Z,27.58
2022-11-26T22:06:46.179Z,19.98
2022-11-26T22:09:14.902Z,24.63
2022-11-26T22:11:44.530Z,23.77
2022-11-26T22:14:14.680Z,19.15
2022-11-26T22:16:42.040Z,22.90
2022-11-26T22:19:09.796Z,18.77
2022-11-26T22:21:39.477Z,17.40
2022-11-26T22:24:08.271Z,19.75
2022-11-26T22:26:35.194Z,18.60
2022-11-26T22:29:02.404Z,19.42
2022-11-26T22:31:31.866Z,24.58
2022-11-26T22:34:08.143Z,24.55
2022-11-26T22:36:35.138Z,18.67
2022-11-26T22:39:04.052Z,21.45
2022-11-26T22:41:31.815Z,28.05
2022-11-26T22:44:00.305Z,30.80
2022-11-26T22:46:27.407Z,28.73
2022-11-26T22:48:56.892Z,26.73
2022-11-26T22:51:25.346Z,30.45
2022-11-26T22:53:57.670Z,30.00
2022-11-26T22:56:25.439Z,29.25
2022-11-26T22:58:52.986Z,32.53
2022-11-26T23:01:25.516Z,26.73
2022-11-26T23:03:53.633Z,30.83
2022-11-26T23:06:22.438Z,25.33
2022-11-26T23:08:50.347Z,27.58
2022-11-26T23:11:29.146Z,34.22
2022-11-26T23:13:56.439Z,24.23
2022-11-26T23:16:25.808Z,42.08
2022-11-26T23:18:57.128Z,25.58
2022-11-26T23:21:29.694Z,24.23
2022-11-26T23:23:57.410Z,27.10
2022-11-26T23:26:27.874Z,23.73
2022-11-26T23:28:56.480Z,23.35
2022-11-26T23:31:34.816Z,28.02
2022-11-26T23:34:02.136Z,35.90
2022-11-26T23:36:30.098Z,27.63
2022-11-26T23:38:59.102Z,34.67
2022-11-26T23:41:26.050Z,25.95
2022-11-26T23:43:52.945Z,27.02
2022-11-26T23:46:25.867Z,28.25
2022-11-26T23:48:53.139Z,30.92
2022-11-26T23:51:31.094Z,29.25
2022-11-26T23:53:58.400Z,32.67
2022-11-26T23:56:30.976Z,29.75
2022-11-26T23:59:01.914Z,28.02
